sensor_id;sensor_type;location;lat;lon;timestamp;temperature;humidity
17341;DHT22;8788;49.930;8.660;2022-09-09T04:06:15;18.40;99.90
17341;DHT22;8788;49.930;8.660;2022-09-09T04:08:45;18.40;99.90
17341;DHT22;8788;49.930;8.660;2022-09-09T04:11:14;18.30;99.90
17341;DHT22;8788;49.930;8.660;2022-09-09T04:13:42;18.30;99.90
17341;DHT22;8788;49.930;8.660;2022-09-09T04:16:12;18.30;99.90
17341;DHT22;8788;49.930;8.660;2022-09-09T04:18:41;18.40;99.90
17341;DHT22;8788;49.930;8.660;2022-09-09T04:21:09;18.40;99.90
17341;DHT22;8788;49.930;8.660;2022-09-09T04:23:39;18.40;99.90
17341;DHT22;8788;49.930;8.660;2022-09-09T04:26:07;18.40;99.90
17341;DHT22;8788;49.930;8.660;2022-09-09T04:28:36;18.40;99.90
17341;DHT22;8788;49.930;8.660;2022-09-09T04:31:10;18.40;99.90
17341;DHT22;8788;49.930;8.660;2022-09-09T04:33:40;18.40;99.90
17341;DHT22;8788;49.930;8.660;2022-09-09T04:36:09;18.40;99.90
17341;DHT22;8788;49.930;8.660;2022-09-09T04:38:38;18.30;99.90
17341;DHT22;8788;49.930;8.660;2022-09-09T04:41:06;18.40;99.90
17341;DHT22;8788;49.930;8.660;2022-09-09T04:43:36;18.40;99.90
17341;DHT22;8788;49.930;8.660;2022-09-09T04:46:05;18.40;99.90
17341;DHT22;8788;49.930;8.660;2022-09-09T04:48:33;18.40;99.90
17341;DHT22;8788;49.930;8.660;2022-09-09T04:51:03;18.40;99.90
17341;DHT22;8788;49.930;8.660;2022-09-09T04:53:32;18.40;99.90
17341;DHT22;8788;49.930;8.660;2022-09-09T04:56:06;18.40;99.90
17341;DHT22;8788;49.930;8.660;2022-09-09T04:58:39;18.40;99.90
17341;DHT22;8788;49.930;8.660;2022-09-09T05:01:10;18.30;99.90
17341;DHT22;8788;49.930;8.660;2022-09-09T05:03:39;18.30;99.90
17341;DHT22;8788;49.930;8.660;2022-09-09T05:06:11;18.20;99.90
17341;DHT22;8788;49.930;8.660;2022-09-09T05:08:39;18.20;99.90
17341;DHT22;8788;49.930;8.660;2022-09-09T05:11:15;18.10;99.90
17341;DHT22;8788;49.930;8.660;2022-09-09T05:13:43;18.10;99.90
17341;DHT22;8788;49.930;8.660;2022-09-09T05:16:10;18.10;99.90
17341;DHT22;8788;49.930;8.660;2022-09-09T05:18:38;18.10;99.90
17341;DHT22;8788;49.930;8.660;2022-09-09T05:21:06;18.10;99.90
17341;DHT22;8788;49.930;8.660;2022-09-09T05:23:33;18.10;99.90
17341;DHT22;8788;49.930;8.660;2022-09-09T05:26:01;18.10;99.90
17341;DHT22;8788;49.930;8.660;2022-09-09T05:28:30;18.10;99.90
17341;DHT22;8788;49.930;8.660;2022-09-09T05:30:59;18.10;99.90
17341;DHT22;8788;49.930;8.660;2022-09-09T05:33:30;18.00;99.90
17341;DHT22;8788;49.930;8.660;2022-09-09T05:36:01;17.90;99.90
17341;DHT22;8788;49.930;8.660;2022-09-09T05:38:29;17.90;99.90
17341;DHT22;8788;49.930;8.660;2022-09-09T05:40:56;18.00;99.90
17341;DHT22;8788;49.930;8.660;2022-09-09T05:43:24;18.00;99.90
17341;DHT22;8788;49.930;8.660;2022-09-09T05:46:01;18.10;99.90
17341;DHT22;8788;49.930;8.660;2022-09-09T05:48:30;18.00;99.90
17341;DHT22;8788;49.930;8.660;2022-09-09T05:50:58;18.00;99.90
17341;DHT22;8788;49.930;8.660;2022-09-09T05:53:26;18.00;99.90
17341;DHT22;8788;49.930;8.660;2022-09-09T05:56:00;18.00;99.90
17341;DHT22;8788;49.930;8.660;2022-09-09T05:58:30;18.00;99.90
17341;DHT22;8788;49.930;8.660;2022-09-09T06:01:05;18.00;99.90
17341;DHT22;8788;49.930;8.660;2022-09-09T06:03:34;18.00;99.90
17341;DHT22;8788;49.930;8.660;2022-09-09T06:06:02;17.90;99.90
17341;DHT22;8788;49.930;8.660;2022-09-09T06:08:33;18.00;99.90
17341;DHT22;8788;49.930;8.660;2022-09-09T06:11:04;18.10;99.90
17341;DHT22;8788;49.930;8.660;2022-09-09T06:13:32;18.20;99.90
17341;DHT22;8788;49.930;8.660;2022-09-09T06:16:02;18.30;99.90
17341;DHT22;8788;49.930;8.660;2022-09-09T06:18:30;18.30;99.90
17341;DHT22;8788;49.930;8.660;2022-09-09T06:20:59;18.40;99.90
17341;DHT22;8788;49.930;8.660;2022-09-09T06:23:27;18.40;99.90
17341;DHT22;8788;49.930;8.660;2022-09-09T06:26:05;18.50;99.90
17341;DHT22;8788;49.930;8.660;2022-09-09T06:28:34;18.60;99.90
17341;DHT22;8788;49.930;8.660;2022-09-09T06:31:05;18.70;99.90
17341;DHT22;8788;49.930;8.660;2022-09-09T06:33:34;18.70;99.90
17341;DHT22;8788;49.930;8.660;2022-09-09T06:36:03;18.80;99.90
17341;DHT22;8788;49.930;8.660;2022-09-09T06:38:31;18.80;99.90
17341;DHT22;8788;49.930;8.660;2022-09-09T06:40:59;18.90;99.90
17341;DHT22;8788;49.930;8.660;2022-09-09T06:43:28;18.90;99.90
17341;DHT22;8788;49.930;8.660;2022-09-09T06:45:56;18.90;99.90
17341;DHT22;8788;49.930;8.660;2022-09-09T06:48:25;19.00;99.90
17341;DHT22;8788;49.930;8.660;2022-09-09T06:51:01;19.00;99.90
17341;DHT22;8788;49.930;8.660;2022-09-09T06:53:29;18.90;99.90
17341;DHT22;8788;49.930;8.660;2022-09-09T06:56:00;18.80;99.90
17341;DHT22;8788;49.930;8.660;2022-09-09T06:58:29;18.80;99.90
17341;DHT22;8788;49.930;8.660;2022-09-09T07:01:02;18.80;99.90
17341;DHT22;8788;49.930;8.660;2022-09-09T07:03:31;18.80;99.90
17341;DHT22;8788;49.930;8.660;2022-09-09T07:06:00;18.80;99.90
17341;DHT22;8788;49.930;8.660;2022-09-09T07:08:28;18.80;99.90
17341;DHT22;8788;49.930;8.660;2022-09-09T07:11:02;18.80;99.90
17341;DHT22;8788;49.930;8.660;2022-09-09T07:13:32;18.80;99.90
17341;DHT22;8788;49.930;8.660;2022-09-09T07:16:03;18.80;99.90
17341;DHT22;8788;49.930;8.660;2022-09-09T07:18:33;18.70;99.90
17341;DHT22;8788;49.930;8.660;2022-09-09T07:21:01;18.70;99.90
17341;DHT22;8788;49.930;8.660;2022-09-09T07:23:30;18.80;99.90
17341;DHT22;8788;49.930;8.660;2022-09-09T07:25:58;18.80;99.90
17341;DHT22;8788;49.930;8.660;2022-09-09T07:28:26;18.90;99.90
17341;DHT22;8788;49.930;8.660;2022-09-09T07:30:55;19.00;99.90
17341;DHT22;8788;49.930;8.660;2022-09-09T07:33:22;19.00;99.90
17341;DHT22;8788;49.930;8.660;2022-09-09T07:35:52;19.10;99.90
17341;DHT22;8788;49.930;8.660;2022-09-09T07:38:19;19.10;99.90
17341;DHT22;8788;49.930;8.660;2022-09-09T07:40:47;19.10;99.90
17341;DHT22;8788;49.930;8.660;2022-09-09T07:43:14;19.10;99.90
17341;DHT22;8788;49.930;8.660;2022-09-09T07:45:43;19.20;99.90
17341;DHT22;8788;49.930;8.660;2022-09-09T07:48:10;19.20;99.90
17341;DHT22;8788;49.930;8.660;2022-09-09T07:50:37;19.30;99.90
17341;DHT22;8788;49.930;8.660;2022-09-09T07:53:06;19.30;99.90
17341;DHT22;8788;49.930;8.660;2022-09-09T07:55:33;19.30;99.90
17341;DHT22;8788;49.930;8.660;2022-09-09T07:58:01;19.50;99.90
17341;DHT22;8788;49.930;8.660;2022-09-09T08:00:28;19.60;99.90
17341;DHT22;8788;49.930;8.660;2022-09-09T08:02:57;19.70;99.90
17341;DHT22;8788;49.930;8.660;2022-09-09T08:05:27;19.70;99.90
17341;DHT22;8788;49.930;8.660;2022-09-09T08:07:55;19.70;99.90
17341;DHT22;8788;49.930;8.660;2022-09-09T08:10:24;19.80;99.90
17341;DHT22;8788;49.930;8.660;2022-09-09T08:12:53;19.90;99.90
17341;DHT22;8788;49.930;8.660;2022-09-09T08:15:21;19.90;99.90
17341;DHT22;8788;49.930;8.660;2022-09-09T08:17:48;19.80;99.90
17341;DHT22;8788;49.930;8.660;2022-09-09T08:20:15;19.80;99.90
17341;DHT22;8788;49.930;8.660;2022-09-09T08:22:42;19.80;99.90
17341;DHT22;8788;49.930;8.660;2022-09-09T08:25:10;19.80;99.90
17341;DHT22;8788;49.930;8.660;2022-09-09T08:27:39;19.80;99.90
17341;DHT22;8788;49.930;8.660;2022-09-09T08:30:07;19.90;99.90
17341;DHT22;8788;49.930;8.660;2022-09-09T08:32:34;20.00;99.90
17341;DHT22;8788;49.930;8.660;2022-09-09T08:35:02;20.00;99.90
17341;DHT22;8788;49.930;8.660;2022-09-09T08:37:29;20.00;99.90
17341;DHT22;8788;49.930;8.660;2022-09-09T08:39:57;20.00;99.90
17341;DHT22;8788;49.930;8.660;2022-09-09T08:42:34;19.90;99.90
17341;DHT22;8788;49.930;8.660;2022-09-09T08:45:14;19.90;99.90
17341;DHT22;8788;49.930;8.660;2022-09-09T08:47:54;19.90;99.90
17341;DHT22;8788;49.930;8.660;2022-09-09T08:50:26;19.90;99.90
17341;DHT22;8788;49.930;8.660;2022-09-09T08:53:02;20.00;99.90
17341;DHT22;8788;49.930;8.660;2022-09-09T08:55:39;19.90;99.90
17341;DHT22;8788;49.930;8.660;2022-09-09T08:58:14;20.00;99.90
17341;DHT22;8788;49.930;8.660;2022-09-09T09:01:12;20.00;99.90
17341;DHT22;8788;49.930;8.660;2022-09-09T09:03:56;20.00;99.90
17341;DHT22;8788;49.930;8.660;2022-09-09T09:06:35;20.00;99.90
17341;DHT22;8788;49.930;8.660;2022-09-09T09:09:13;20.10;99.90
17341;DHT22;8788;49.930;8.660;2022-09-09T09:11:45;20.10;99.90
17341;DHT22;8788;49.930;8.660;2022-09-09T09:14:18;20.10;99.90
17341;DHT22;8788;49.930;8.660;2022-09-09T09:16:53;19.90;99.90
17341;DHT22;8788;49.930;8.660;2022-09-09T09:19:22;19.90;99.90
17341;DHT22;8788;49.930;8.660;2022-09-09T09:21:56;19.90;99.90
17341;DHT22;8788;49.930;8.660;2022-09-09T09:24:30;19.90;99.90
17341;DHT22;8788;49.930;8.660;2022-09-09T09:27:11;19.80;99.90
17341;DHT22;8788;49.930;8.660;2022-09-09T09:29:42;19.70;99.90
17341;DHT22;8788;49.930;8.660;2022-09-09T09:32:14;19.70;99.90
17341;DHT22;8788;49.930;8.660;2022-09-09T09:34:48;19.80;99.90
17341;DHT22;8788;49.930;8.660;2022-09-09T09:37:19;20.00;99.90
17341;DHT22;8788;49.930;8.660;2022-09-09T09:39:48;20.10;99.90
17341;DHT22;8788;49.930;8.660;2022-09-09T09:42:17;20.50;99.90
17341;DHT22;8788;49.930;8.660;2022-09-09T09:44:46;20.80;99.90
17341;DHT22;8788;49.930;8.660;2022-09-09T09:47:20;20.90;99.90
17341;DHT22;8788;49.930;8.660;2022-09-09T09:50:17;20.90;99.90
17341;DHT22;8788;49.930;8.660;2022-09-09T09:52:54;20.90;99.90
17341;DHT22;8788;49.930;8.660;2022-09-09T09:55:23;20.80;99.90
17341;DHT22;8788;49.930;8.660;2022-09-09T09:57:51;20.80;99.90
17341;DHT22;8788;49.930;8.660;2022-09-09T10:00:22;20.80;99.90
17341;DHT22;8788;49.930;8.660;2022-09-09T10:03:22;20.90;99.90
17341;DHT22;8788;49.930;8.660;2022-09-09T10:05:50;21.10;99.90
17341;DHT22;8788;49.930;8.660;2022-09-09T10:08:18;21.10;99.90
17341;DHT22;8788;49.930;8.660;2022-09-09T10:11:06;21.10;99.90
17341;DHT22;8788;49.930;8.660;2022-09-09T10:13:42;21.10;99.90
17341;DHT22;8788;49.930;8.660;2022-09-09T10:16:25;21.00;99.90
17341;DHT22;8788;49.930;8.660;2022-09-09T10:19:01;21.00;99.90
17341;DHT22;8788;49.930;8.660;2022-09-09T10:21:52;20.90;99.90
17341;DHT22;8788;49.930;8.660;2022-09-09T10:24:36;20.90;99.90
17341;DHT22;8788;49.930;8.660;2022-09-09T10:27:15;21.10;99.90
17341;DHT22;8788;49.930;8.660;2022-09-09T10:30:03;21.30;99.90
17341;DHT22;8788;49.930;8.660;2022-09-09T10:32:40;21.50;99.90
17341;DHT22;8788;49.930;8.660;2022-09-09T10:35:27;21.70;99.90
17341;DHT22;8788;49.930;8.660;2022-09-09T10:38:14;21.80;99.90
17341;DHT22;8788;49.930;8.660;2022-09-09T10:40:59;21.80;99.90
17341;DHT22;8788;49.930;8.660;2022-09-09T10:43:40;21.70;99.90
17341;DHT22;8788;49.930;8.660;2022-09-09T10:46:15;21.60;99.90
17341;DHT22;8788;49.930;8.660;2022-09-09T10:48:56;21.40;99.90
17341;DHT22;8788;49.930;8.660;2022-09-09T10:51:35;21.30;99.90
17341;DHT22;8788;49.930;8.660;2022-09-09T10:54:16;21.10;99.90
17341;DHT22;8788;49.930;8.660;2022-09-09T10:56:49;21.10;99.90
17341;DHT22;8788;49.930;8.660;2022-09-09T10:59:23;21.40;99.90
17341;DHT22;8788;49.930;8.660;2022-09-09T11:01:55;21.60;99.90
17341;DHT22;8788;49.930;8.660;2022-09-09T11:04:26;21.70;99.90
17341;DHT22;8788;49.930;8.660;2022-09-09T11:07:02;21.70;99.90
17341;DHT22;8788;49.930;8.660;2022-09-09T11:09:36;21.90;99.90
17341;DHT22;8788;49.930;8.660;2022-09-09T11:12:05;22.00;99.90
17341;DHT22;8788;49.930;8.660;2022-09-09T11:14:40;22.20;99.90
17341;DHT22;8788;49.930;8.660;2022-09-09T11:17:12;22.50;99.90
17341;DHT22;8788;49.930;8.660;2022-09-09T11:19:42;22.60;99.90
17341;DHT22;8788;49.930;8.660;2022-09-09T11:22:18;22.60;99.90
17341;DHT22;8788;49.930;8.660;2022-09-09T11:24:51;22.50;99.90
17341;DHT22;8788;49.930;8.660;2022-09-09T11:27:23;22.40;99.90
17341;DHT22;8788;49.930;8.660;2022-09-09T11:30:11;22.50;99.90
17341;DHT22;8788;49.930;8.660;2022-09-09T11:35:56;22.70;99.90
17341;DHT22;8788;49.930;8.660;2022-09-09T11:38:28;22.90;99.90
17341;DHT22;8788;49.930;8.660;2022-09-09T11:41:00;23.00;99.90
17341;DHT22;8788;49.930;8.660;2022-09-09T11:43:30;23.10;99.90
17341;DHT22;8788;49.930;8.660;2022-09-09T11:45:59;23.30;99.90
17341;DHT22;8788;49.930;8.660;2022-09-09T11:48:36;23.20;99.90
17341;DHT22;8788;49.930;8.660;2022-09-09T11:51:06;23.00;99.90
17341;DHT22;8788;49.930;8.660;2022-09-09T11:53:47;23.00;99.90
17341;DHT22;8788;49.930;8.660;2022-09-09T11:56:24;23.10;99.90
17341;DHT22;8788;49.930;8.660;2022-09-09T11:58:58;23.10;99.90
17341;DHT22;8788;49.930;8.660;2022-09-09T12:01:34;22.80;99.90
17341;DHT22;8788;49.930;8.660;2022-09-09T12:04:17;22.70;99.90
17341;DHT22;8788;49.930;8.660;2022-09-09T12:06:46;22.60;99.90
17341;DHT22;8788;49.930;8.660;2022-09-09T12:09:25;22.60;99.90
17341;DHT22;8788;49.930;8.660;2022-09-09T12:12:05;22.40;99.90
17341;DHT22;8788;49.930;8.660;2022-09-09T12:14:37;22.30;99.90
17341;DHT22;8788;49.930;8.660;2022-09-09T12:17:19;22.30;99.90
17341;DHT22;8788;49.930;8.660;2022-09-09T12:19:46;22.20;99.90
17341;DHT22;8788;49.930;8.660;2022-09-09T12:22:22;22.10;99.90
17341;DHT22;8788;49.930;8.660;2022-09-09T12:24:58;22.10;99.90
17341;DHT22;8788;49.930;8.660;2022-09-09T12:27:33;22.30;99.90
17341;DHT22;8788;49.930;8.660;2022-09-09T12:30:07;22.40;99.90
17341;DHT22;8788;49.930;8.660;2022-09-09T12:32:35;22.30;99.90
17341;DHT22;8788;49.930;8.660;2022-09-09T12:35:09;22.20;99.90
17341;DHT22;8788;49.930;8.660;2022-09-09T12:37:39;22.20;99.90
17341;DHT22;8788;49.930;8.660;2022-09-09T12:40:20;22.00;99.90
17341;DHT22;8788;49.930;8.660;2022-09-09T12:42:47;21.90;99.90
17341;DHT22;8788;49.930;8.660;2022-09-09T12:45:16;21.80;99.90
17341;DHT22;8788;49.930;8.660;2022-09-09T12:47:47;21.70;99.90
17341;DHT22;8788;49.930;8.660;2022-09-09T12:50:19;21.70;99.90
17341;DHT22;8788;49.930;8.660;2022-09-09T12:52:48;21.60;99.90
17341;DHT22;8788;49.930;8.660;2022-09-09T12:55:19;21.50;99.90
17341;DHT22;8788;49.930;8.660;2022-09-09T12:57:48;21.40;99.90
17341;DHT22;8788;49.930;8.660;2022-09-09T13:00:19;21.40;99.90
17341;DHT22;8788;49.930;8.660;2022-09-09T13:02:49;21.60;99.90
17341;DHT22;8788;49.930;8.660;2022-09-09T13:05:19;21.60;99.90
17341;DHT22;8788;49.930;8.660;2022-09-09T13:07:47;21.60;99.90
17341;DHT22;8788;49.930;8.660;2022-09-09T13:10:17;21.60;99.90
17341;DHT22;8788;49.930;8.660;2022-09-09T13:12:48;21.50;99.90
17341;DHT22;8788;49.930;8.660;2022-09-09T13:15:20;21.50;99.00
17341;DHT22;8788;49.930;8.660;2022-09-09T13:17:53;21.30;99.60
17341;DHT22;8788;49.930;8.660;2022-09-09T13:20:21;21.10;99.90
17341;DHT22;8788;49.930;8.660;2022-09-09T13:22:50;21.00;99.90
17341;DHT22;8788;49.930;8.660;2022-09-09T13:25:23;20.90;99.90
17341;DHT22;8788;49.930;8.660;2022-09-09T13:27:57;20.80;99.90
17341;DHT22;8788;49.930;8.660;2022-09-09T13:30:27;20.90;99.90
17341;DHT22;8788;49.930;8.660;2022-09-09T13:33:05;20.80;99.90
17341;DHT22;8788;49.930;8.660;2022-09-09T13:35:33;20.80;99.90
17341;DHT22;8788;49.930;8.660;2022-09-09T13:38:07;20.90;99.90
17341;DHT22;8788;49.930;8.660;2022-09-09T13:40:35;20.90;99.90
17341;DHT22;8788;49.930;8.660;2022-09-09T13:43:03;21.00;99.90
17341;DHT22;8788;49.930;8.660;2022-09-09T13:45:31;21.00;99.90
17341;DHT22;8788;49.930;8.660;2022-09-09T13:48:09;21.00;99.90
17341;DHT22;8788;49.930;8.660;2022-09-09T13:50:36;21.00;99.90
17341;DHT22;8788;49.930;8.660;2022-09-09T13:53:04;21.30;99.90
17341;DHT22;8788;49.930;8.660;2022-09-09T13:55:31;21.90;99.90
17341;DHT22;8788;49.930;8.660;2022-09-09T13:57:59;22.60;99.90
17341;DHT22;8788;49.930;8.660;2022-09-09T14:00:31;23.10;99.60
17341;DHT22;8788;49.930;8.660;2022-09-09T14:02:58;23.30;98.80
17341;DHT22;8788;49.930;8.660;2022-09-09T14:05:27;23.10;98.30
17341;DHT22;8788;49.930;8.660;2022-09-09T14:07:55;22.70;98.70
17341;DHT22;8788;49.930;8.660;2022-09-09T14:10:22;22.30;99.00
17341;DHT22;8788;49.930;8.660;2022-09-09T14:12:49;22.10;99.80
17341;DHT22;8788;49.930;8.660;2022-09-09T14:15:16;22.00;99.90
17341;DHT22;8788;49.930;8.660;2022-09-09T14:17:46;22.00;99.90
17341;DHT22;8788;49.930;8.660;2022-09-09T14:20:14;21.90;99.90
17341;DHT22;8788;49.930;8.660;2022-09-09T14:22:43;21.70;99.90
17341;DHT22;8788;49.930;8.660;2022-09-09T14:25:10;21.60;99.90
17341;DHT22;8788;49.930;8.660;2022-09-09T14:27:39;21.50;99.90
17341;DHT22;8788;49.930;8.660;2022-09-09T14:30:07;21.40;99.90
17341;DHT22;8788;49.930;8.660;2022-09-09T14:32:35;21.30;99.90
17341;DHT22;8788;49.930;8.660;2022-09-09T14:35:04;21.30;99.90
17341;DHT22;8788;49.930;8.660;2022-09-09T14:37:31;21.30;99.90
17341;DHT22;8788;49.930;8.660;2022-09-09T14:39:58;21.30;99.90
17341;DHT22;8788;49.930;8.660;2022-09-09T14:42:25;21.30;99.90
17341;DHT22;8788;49.930;8.660;2022-09-09T14:44:52;21.30;99.90
17341;DHT22;8788;49.930;8.660;2022-09-09T14:47:19;21.20;99.90
17341;DHT22;8788;49.930;8.660;2022-09-09T14:49:46;21.30;99.90
17341;DHT22;8788;49.930;8.660;2022-09-09T14:52:16;21.30;99.90
17341;DHT22;8788;49.930;8.660;2022-09-09T14:54:43;21.30;99.90
17341;DHT22;8788;49.930;8.660;2022-09-09T14:57:11;21.40;99.90
17341;DHT22;8788;49.930;8.660;2022-09-09T14:59:38;21.40;99.90
17341;DHT22;8788;49.930;8.660;2022-09-09T15:02:05;21.40;99.90
17341;DHT22;8788;49.930;8.660;2022-09-09T15:04:32;21.30;99.90
17341;DHT22;8788;49.930;8.660;2022-09-09T15:06:59;21.30;99.90
17341;DHT22;8788;49.930;8.660;2022-09-09T15:09:27;21.40;99.90
17341;DHT22;8788;49.930;8.660;2022-09-09T15:11:54;21.40;99.90
17341;DHT22;8788;49.930;8.660;2022-09-09T15:14:21;21.40;99.90
17341;DHT22;8788;49.930;8.660;2022-09-09T15:16:49;21.30;99.90
17341;DHT22;8788;49.930;8.660;2022-09-09T15:19:16;21.20;99.90
17341;DHT22;8788;49.930;8.660;2022-09-09T15:21:43;21.30;99.90
17341;DHT22;8788;49.930;8.660;2022-09-09T15:24:10;21.40;99.90
17341;DHT22;8788;49.930;8.660;2022-09-09T15:26:40;21.60;99.90
17341;DHT22;8788;49.930;8.660;2022-09-09T15:29:07;22.00;99.90
17341;DHT22;8788;49.930;8.660;2022-09-09T15:31:35;22.40;99.90
17341;DHT22;8788;49.930;8.660;2022-09-09T15:34:03;23.70;99.90
17341;DHT22;8788;49.930;8.660;2022-09-09T15:36:32;25.30;99.90
17341;DHT22;8788;49.930;8.660;2022-09-09T15:39:00;26.60;98.40
17341;DHT22;8788;49.930;8.660;2022-09-09T15:41:28;27.30;96.10
17341;DHT22;8788;49.930;8.660;2022-09-09T15:43:59;27.10;95.00
17341;DHT22;8788;49.930;8.660;2022-09-09T15:46:28;26.30;95.40
17341;DHT22;8788;49.930;8.660;2022-09-09T15:48:57;25.70;96.80
17341;DHT22;8788;49.930;8.660;2022-09-09T15:51:25;25.50;97.10
17341;DHT22;8788;49.930;8.660;2022-09-09T15:53:57;25.30;97.10
17341;DHT22;8788;49.930;8.660;2022-09-09T15:56:25;24.90;97.10
17341;DHT22;8788;49.930;8.660;2022-09-09T15:58:53;24.40;97.60
17341;DHT22;8788;49.930;8.660;2022-09-09T16:01:21;24.00;98.10
17341;DHT22;8788;49.930;8.660;2022-09-09T16:03:48;23.70;98.60
17341;DHT22;8788;49.930;8.660;2022-09-09T16:06:19;23.50;99.00
17341;DHT22;8788;49.930;8.660;2022-09-09T16:08:48;23.10;99.20
17341;DHT22;8788;49.930;8.660;2022-09-09T16:11:18;22.90;99.60
17341;DHT22;8788;49.930;8.660;2022-09-09T16:13:46;22.80;99.90
17341;DHT22;8788;49.930;8.660;2022-09-09T16:16:15;22.60;99.90
17341;DHT22;8788;49.930;8.660;2022-09-09T16:18:46;22.30;99.90
17341;DHT22;8788;49.930;8.660;2022-09-09T16:21:16;22.10;99.90
17341;DHT22;8788;49.930;8.660;2022-09-09T16:23:43;22.00;99.90
17341;DHT22;8788;49.930;8.660;2022-09-09T16:26:13;22.00;99.90
17341;DHT22;8788;49.930;8.660;2022-09-09T16:28:40;21.90;99.90
17341;DHT22;8788;49.930;8.660;2022-09-09T16:31:10;21.80;99.90
17341;DHT22;8788;49.930;8.660;2022-09-09T16:33:37;21.70;99.90
17341;DHT22;8788;49.930;8.660;2022-09-09T16:36:10;21.60;99.90
17341;DHT22;8788;49.930;8.660;2022-09-09T16:38:38;21.50;99.90
17341;DHT22;8788;49.930;8.660;2022-09-09T16:41:06;21.40;99.90
17341;DHT22;8788;49.930;8.660;2022-09-09T16:43:34;21.20;99.90
17341;DHT22;8788;49.930;8.660;2022-09-09T16:46:02;21.10;99.90
17341;DHT22;8788;49.930;8.660;2022-09-09T16:48:31;21.10;99.90
17341;DHT22;8788;49.930;8.660;2022-09-09T16:51:02;20.90;99.90
17341;DHT22;8788;49.930;8.660;2022-09-09T16:53:32;20.90;99.90
17341;DHT22;8788;49.930;8.660;2022-09-09T16:56:05;20.80;99.90
17341;DHT22;8788;49.930;8.660;2022-09-09T16:58:32;20.70;99.90
17341;DHT22;8788;49.930;8.660;2022-09-09T17:01:00;20.70;99.90
17341;DHT22;8788;49.930;8.660;2022-09-09T17:03:27;20.60;99.90
17341;DHT22;8788;49.930;8.660;2022-09-09T17:05:55;20.50;99.90
17341;DHT22;8788;49.930;8.660;2022-09-09T17:08:23;20.50;99.90
17341;DHT22;8788;49.930;8.660;2022-09-09T17:10:51;20.40;99.90
17341;DHT22;8788;49.930;8.660;2022-09-09T17:13:19;20.40;99.90
17341;DHT22;8788;49.930;8.660;2022-09-09T17:15:46;20.30;99.90
17341;DHT22;8788;49.930;8.660;2022-09-09T17:18:13;20.20;99.90
17341;DHT22;8788;49.930;8.660;2022-09-09T17:20:42;20.10;99.90
17341;DHT22;8788;49.930;8.660;2022-09-09T17:23:10;20.10;99.90
17341;DHT22;8788;49.930;8.660;2022-09-09T17:25:38;20.10;99.90
17341;DHT22;8788;49.930;8.660;2022-09-09T17:28:07;20.00;99.90
17341;DHT22;8788;49.930;8.660;2022-09-09T17:30:35;20.00;99.90
17341;DHT22;8788;49.930;8.660;2022-09-09T17:33:03;20.00;99.90
17341;DHT22;8788;49.930;8.660;2022-09-09T17:35:32;19.90;99.90
17341;DHT22;8788;49.930;8.660;2022-09-09T17:37:59;19.90;99.90
17341;DHT22;8788;49.930;8.660;2022-09-09T17:40:27;19.90;99.90
17341;DHT22;8788;49.930;8.660;2022-09-09T17:42:56;19.80;99.90
17341;DHT22;8788;49.930;8.660;2022-09-09T17:45:24;19.70;99.90
17341;DHT22;8788;49.930;8.660;2022-09-09T17:47:54;19.60;99.90
17341;DHT22;8788;49.930;8.660;2022-09-09T17:50:22;19.40;99.90
17341;DHT22;8788;49.930;8.660;2022-09-09T17:52:49;19.30;99.90
17341;DHT22;8788;49.930;8.660;2022-09-09T17:55:16;19.20;99.90
17341;DHT22;8788;49.930;8.660;2022-09-09T17:57:43;19.10;99.90
17341;DHT22;8788;49.930;8.660;2022-09-09T18:00:12;19.00;99.90
17341;DHT22;8788;49.930;8.660;2022-09-09T18:02:41;19.00;99.90
17341;DHT22;8788;49.930;8.660;2022-09-09T18:05:09;18.90;99.90
17341;DHT22;8788;49.930;8.660;2022-09-09T18:07:36;18.80;99.90
17341;DHT22;8788;49.930;8.660;2022-09-09T18:10:03;18.80;99.90
17341;DHT22;8788;49.930;8.660;2022-09-09T18:12:31;18.80;99.90
17341;DHT22;8788;49.930;8.660;2022-09-09T18:14:58;18.70;99.90
17341;DHT22;8788;49.930;8.660;2022-09-09T18:17:25;18.70;99.90
17341;DHT22;8788;49.930;8.660;2022-09-09T18:19:54;18.70;99.90
17341;DHT22;8788;49.930;8.660;2022-09-09T18:22:21;18.70;99.90
17341;DHT22;8788;49.930;8.660;2022-09-09T18:24:48;18.80;99.90
17341;DHT22;8788;49.930;8.660;2022-09-09T18:27:15;18.80;99.90
17341;DHT22;8788;49.930;8.660;2022-09-09T18:29:42;18.80;99.90
17341;DHT22;8788;49.930;8.660;2022-09-09T18:32:09;18.80;99.90
17341;DHT22;8788;49.930;8.660;2022-09-09T18:34:36;18.90;99.90
17341;DHT22;8788;49.930;8.660;2022-09-09T18:37:04;18.90;99.90
17341;DHT22;8788;49.930;8.660;2022-09-09T18:39:33;18.80;99.90
17341;DHT22;8788;49.930;8.660;2022-09-09T18:42:00;18.70;99.90
17341;DHT22;8788;49.930;8.660;2022-09-09T18:44:29;18.60;99.90
17341;DHT22;8788;49.930;8.660;2022-09-09T18:46:57;18.60;99.90
17341;DHT22;8788;49.930;8.660;2022-09-09T18:49:24;18.60;99.90
17341;DHT22;8788;49.930;8.660;2022-09-09T18:51:52;18.40;99.90
17341;DHT22;8788;49.930;8.660;2022-09-09T18:54:22;18.30;99.90
17341;DHT22;8788;49.930;8.660;2022-09-09T18:56:50;18.20;99.90
17341;DHT22;8788;49.930;8.660;2022-09-09T18:59:19;18.30;99.90
17341;DHT22;8788;49.930;8.660;2022-09-09T19:01:47;18.20;99.90
17341;DHT22;8788;49.930;8.660;2022-09-09T19:04:15;18.10;99.90
17341;DHT22;8788;49.930;8.660;2022-09-09T19:06:44;18.10;99.90
17341;DHT22;8788;49.930;8.660;2022-09-09T19:09:13;18.00;99.90
17341;DHT22;8788;49.930;8.660;2022-09-09T19:11:42;18.00;99.90
17341;DHT22;8788;49.930;8.660;2022-09-09T19:14:11;18.00;99.90
17341;DHT22;8788;49.930;8.660;2022-09-09T19:16:38;18.00;99.90
17341;DHT22;8788;49.930;8.660;2022-09-09T19:19:08;17.80;99.90
17341;DHT22;8788;49.930;8.660;2022-09-09T19:21:37;17.80;99.90
17341;DHT22;8788;49.930;8.660;2022-09-09T19:24:05;17.80;99.90
17341;DHT22;8788;49.930;8.660;2022-09-09T19:26:34;17.80;99.90
17341;DHT22;8788;49.930;8.660;2022-09-09T19:29:07;17.80;99.90
17341;DHT22;8788;49.930;8.660;2022-09-09T19:31:34;17.70;99.90
17341;DHT22;8788;49.930;8.660;2022-09-09T19:34:02;17.70;99.90
17341;DHT22;8788;49.930;8.660;2022-09-09T19:36:29;17.60;99.90
17341;DHT22;8788;49.930;8.660;2022-09-09T19:38:57;17.60;99.90
17341;DHT22;8788;49.930;8.660;2022-09-09T19:41:26;17.50;99.90
17341;DHT22;8788;49.930;8.660;2022-09-09T19:43:56;17.50;99.90
17341;DHT22;8788;49.930;8.660;2022-09-09T19:46:27;17.50;99.90
17341;DHT22;8788;49.930;8.660;2022-09-09T19:48:55;17.40;99.90
17341;DHT22;8788;49.930;8.660;2022-09-09T19:51:24;17.30;99.90
17341;DHT22;8788;49.930;8.660;2022-09-09T19:53:55;17.30;99.90
17341;DHT22;8788;49.930;8.660;2022-09-09T19:56:24;17.20;99.90
17341;DHT22;8788;49.930;8.660;2022-09-09T19:58:52;17.20;99.90
17341;DHT22;8788;49.930;8.660;2022-09-09T20:01:21;17.10;99.90
17341;DHT22;8788;49.930;8.660;2022-09-09T20:03:51;17.10;99.90
17341;DHT22;8788;49.930;8.660;2022-09-09T20:06:20;17.10;99.90
17341;DHT22;8788;49.930;8.660;2022-09-09T20:08:49;17.10;99.90
17341;DHT22;8788;49.930;8.660;2022-09-09T20:11:16;17.10;99.90
17341;DHT22;8788;49.930;8.660;2022-09-09T20:13:46;17.10;99.90